sensor_id;sensor_type;location;lat;lon;timestamp;temperature;humidity
16823;DHT22;8528;49.976;11.858;2023-07-20T00:00:05;15.60;99.90
16823;DHT22;8528;49.976;11.858;2023-07-20T00:02:32;15.50;99.90
16823;DHT22;8528;49.976;11.858;2023-07-20T00:04:59;15.40;99.90
16823;DHT22;8528;49.976;11.858;2023-07-20T00:07:26;15.40;99.90
16823;DHT22;8528;49.976;11.858;2023-07-20T00:09:52;15.30;99.90
16823;DHT22;8528;49.976;11.858;2023-07-20T00:12:19;15.30;99.90
16823;DHT22;8528;49.976;11.858;2023-07-20T00:14:48;15.20;99.90
16823;DHT22;8528;49.976;11.858;2023-07-20T00:17:15;15.10;99.90
16823;DHT22;8528;49.976;11.858;2023-07-20T00:19:42;15.10;99.90
16823;DHT22;8528;49.976;11.858;2023-07-20T00:22:09;15.00;99.90
16823;DHT22;8528;49.976;11.858;2023-07-20T00:24:36;15.00;99.90
16823;DHT22;8528;49.976;11.858;2023-07-20T00:27:03;14.90;99.90
16823;DHT22;8528;49.976;11.858;2023-07-20T00:29:30;14.90;99.90
16823;DHT22;8528;49.976;11.858;2023-07-20T00:31:57;14.90;99.90
16823;DHT22;8528;49.976;11.858;2023-07-20T00:34:25;15.00;99.90
16823;DHT22;8528;49.976;11.858;2023-07-20T00:36:51;15.00;99.90
16823;DHT22;8528;49.976;11.858;2023-07-20T00:39:18;15.00;99.90
16823;DHT22;8528;49.976;11.858;2023-07-20T00:41:45;15.00;99.90
16823;DHT22;8528;49.976;11.858;2023-07-20T00:44:12;15.00;99.90
16823;DHT22;8528;49.976;11.858;2023-07-20T00:46:39;15.00;99.90
16823;DHT22;8528;49.976;11.858;2023-07-20T00:49:08;15.00;99.90
16823;DHT22;8528;49.976;11.858;2023-07-20T00:51:35;15.10;99.90
16823;DHT22;8528;49.976;11.858;2023-07-20T00:54:02;15.00;99.90
16823;DHT22;8528;49.976;11.858;2023-07-20T00:56:29;15.00;99.90
16823;DHT22;8528;49.976;11.858;2023-07-20T00:58:57;15.00;99.90
16823;DHT22;8528;49.976;11.858;2023-07-20T01:01:24;15.10;99.90
16823;DHT22;8528;49.976;11.858;2023-07-20T01:03:50;15.10;99.90
16823;DHT22;8528;49.976;11.858;2023-07-20T01:06:33;15.20;99.90
16823;DHT22;8528;49.976;11.858;2023-07-20T01:14:14;15.20;99.90
16823;DHT22;8528;49.976;11.858;2023-07-20T01:16:41;15.20;99.90
16823;DHT22;8528;49.976;11.858;2023-07-20T01:19:07;15.20;99.90
16823;DHT22;8528;49.976;11.858;2023-07-20T01:21:42;15.20;99.90
16823;DHT22;8528;49.976;11.858;2023-07-20T01:26:55;15.10;99.90
16823;DHT22;8528;49.976;11.858;2023-07-20T01:32:09;15.00;99.90
16823;DHT22;8528;49.976;11.858;2023-07-20T01:34:37;14.90;99.90
16823;DHT22;8528;49.976;11.858;2023-07-20T01:37:06;14.90;99.90
16823;DHT22;8528;49.976;11.858;2023-07-20T01:39:33;14.80;99.90
16823;DHT22;8528;49.976;11.858;2023-07-20T01:42:01;14.80;99.90
16823;DHT22;8528;49.976;11.858;2023-07-20T01:44:28;14.70;99.90
16823;DHT22;8528;49.976;11.858;2023-07-20T01:46:55;14.70;99.90
16823;DHT22;8528;49.976;11.858;2023-07-20T01:49:22;14.70;99.90
16823;DHT22;8528;49.976;11.858;2023-07-20T01:51:49;14.60;99.90
16823;DHT22;8528;49.976;11.858;2023-07-20T01:54:16;14.60;99.90
16823;DHT22;8528;49.976;11.858;2023-07-20T01:56:43;14.60;99.90
16823;DHT22;8528;49.976;11.858;2023-07-20T01:59:10;14.60;99.90
16823;DHT22;8528;49.976;11.858;2023-07-20T02:01:36;14.60;99.90
16823;DHT22;8528;49.976;11.858;2023-07-20T02:04:03;14.60;99.90
16823;DHT22;8528;49.976;11.858;2023-07-20T02:06:30;14.50;99.90
16823;DHT22;8528;49.976;11.858;2023-07-20T02:08:57;14.40;99.90
16823;DHT22;8528;49.976;11.858;2023-07-20T02:11:24;14.40;99.90
16823;DHT22;8528;49.976;11.858;2023-07-20T02:13:51;14.30;99.90
16823;DHT22;8528;49.976;11.858;2023-07-20T02:16:18;14.20;99.90
16823;DHT22;8528;49.976;11.858;2023-07-20T02:18:45;14.20;99.90
16823;DHT22;8528;49.976;11.858;2023-07-20T02:21:12;14.10;99.90
16823;DHT22;8528;49.976;11.858;2023-07-20T02:23:39;14.10;99.90
16823;DHT22;8528;49.976;11.858;2023-07-20T02:26:05;14.00;99.90
16823;DHT22;8528;49.976;11.858;2023-07-20T02:28:32;14.00;99.90
16823;DHT22;8528;49.976;11.858;2023-07-20T02:30:59;14.00;99.90
16823;DHT22;8528;49.976;11.858;2023-07-20T02:33:27;14.00;99.90
16823;DHT22;8528;49.976;11.858;2023-07-20T02:35:54;14.00;99.90
16823;DHT22;8528;49.976;11.858;2023-07-20T02:38:22;13.90;99.90
16823;DHT22;8528;49.976;11.858;2023-07-20T02:40:48;13.80;99.90
16823;DHT22;8528;49.976;11.858;2023-07-20T02:43:15;13.80;99.90
16823;DHT22;8528;49.976;11.858;2023-07-20T02:45:43;13.70;99.90
16823;DHT22;8528;49.976;11.858;2023-07-20T02:48:10;13.70;99.90
16823;DHT22;8528;49.976;11.858;2023-07-20T02:50:37;13.60;99.90
16823;DHT22;8528;49.976;11.858;2023-07-20T02:53:04;13.60;99.90
16823;DHT22;8528;49.976;11.858;2023-07-20T02:55:31;13.50;99.90
16823;DHT22;8528;49.976;11.858;2023-07-20T02:57:57;13.50;99.90
16823;DHT22;8528;49.976;11.858;2023-07-20T03:00:24;13.40;99.90
16823;DHT22;8528;49.976;11.858;2023-07-20T03:02:52;13.30;99.90
16823;DHT22;8528;49.976;11.858;2023-07-20T03:05:23;13.30;99.90
16823;DHT22;8528;49.976;11.858;2023-07-20T03:07:54;13.20;99.90
16823;DHT22;8528;49.976;11.858;2023-07-20T03:10:21;13.20;99.90
16823;DHT22;8528;49.976;11.858;2023-07-20T03:12:48;13.10;99.90
16823;DHT22;8528;49.976;11.858;2023-07-20T03:15:15;13.10;99.90
16823;DHT22;8528;49.976;11.858;2023-07-20T03:17:42;13.00;99.90
16823;DHT22;8528;49.976;11.858;2023-07-20T03:20:10;12.90;99.90
16823;DHT22;8528;49.976;11.858;2023-07-20T03:22:37;12.80;99.90
16823;DHT22;8528;49.976;11.858;2023-07-20T03:25:04;12.80;99.90
16823;DHT22;8528;49.976;11.858;2023-07-20T03:27:31;12.70;99.90
16823;DHT22;8528;49.976;11.858;2023-07-20T03:29:58;12.70;99.90
16823;DHT22;8528;49.976;11.858;2023-07-20T03:32:25;12.60;99.90
16823;DHT22;8528;49.976;11.858;2023-07-20T03:34:52;12.60;99.90
16823;DHT22;8528;49.976;11.858;2023-07-20T03:37:19;12.60;99.90
16823;DHT22;8528;49.976;11.858;2023-07-20T03:39:46;12.70;99.90
16823;DHT22;8528;49.976;11.858;2023-07-20T03:42:13;12.80;99.90
16823;DHT22;8528;49.976;11.858;2023-07-20T03:44:40;12.90;99.90
16823;DHT22;8528;49.976;11.858;2023-07-20T03:47:07;13.00;99.90
16823;DHT22;8528;49.976;11.858;2023-07-20T03:49:33;13.10;99.90
16823;DHT22;8528;49.976;11.858;2023-07-20T03:52:01;13.20;99.90
16823;DHT22;8528;49.976;11.858;2023-07-20T03:54:30;13.30;99.90
16823;DHT22;8528;49.976;11.858;2023-07-20T03:56:56;13.40;99.90
16823;DHT22;8528;49.976;11.858;2023-07-20T03:59:24;13.40;99.90
16823;DHT22;8528;49.976;11.858;2023-07-20T04:01:51;13.40;99.90
16823;DHT22;8528;49.976;11.858;2023-07-20T04:04:18;13.40;99.90
16823;DHT22;8528;49.976;11.858;2023-07-20T04:06:45;13.50;99.90
16823;DHT22;8528;49.976;11.858;2023-07-20T04:09:12;13.50;99.90
16823;DHT22;8528;49.976;11.858;2023-07-20T04:11:39;13.50;99.90
16823;DHT22;8528;49.976;11.858;2023-07-20T04:14:07;13.60;99.90
16823;DHT22;8528;49.976;11.858;2023-07-20T04:16:34;13.60;99.90
16823;DHT22;8528;49.976;11.858;2023-07-20T04:19:01;13.60;99.90
16823;DHT22;8528;49.976;11.858;2023-07-20T04:21:28;13.70;99.90
16823;DHT22;8528;49.976;11.858;2023-07-20T04:23:54;13.80;99.90
16823;DHT22;8528;49.976;11.858;2023-07-20T04:26:21;13.90;99.90
16823;DHT22;8528;49.976;11.858;2023-07-20T04:28:48;14.00;99.90
16823;DHT22;8528;49.976;11.858;2023-07-20T04:31:17;14.00;99.90
16823;DHT22;8528;49.976;11.858;2023-07-20T04:33:44;14.20;99.90
16823;DHT22;8528;49.976;11.858;2023-07-20T04:36:11;14.50;99.90
16823;DHT22;8528;49.976;11.858;2023-07-20T04:38:37;14.70;99.90
16823;DHT22;8528;49.976;11.858;2023-07-20T04:41:04;15.00;99.90
16823;DHT22;8528;49.976;11.858;2023-07-20T04:43:31;15.50;99.90
16823;DHT22;8528;49.976;11.858;2023-07-20T04:45:58;16.10;99.90
16823;DHT22;8528;49.976;11.858;2023-07-20T04:48:25;16.60;99.90
16823;DHT22;8528;49.976;11.858;2023-07-20T04:50:52;17.10;99.90
16823;DHT22;8528;49.976;11.858;2023-07-20T04:53:18;17.30;99.90
16823;DHT22;8528;49.976;11.858;2023-07-20T04:55:49;17.40;99.90
16823;DHT22;8528;49.976;11.858;2023-07-20T04:58:22;17.30;99.90
16823;DHT22;8528;49.976;11.858;2023-07-20T05:00:50;17.20;99.90
16823;DHT22;8528;49.976;11.858;2023-07-20T05:03:17;17.20;99.90
16823;DHT22;8528;49.976;11.858;2023-07-20T05:05:46;17.30;99.90
16823;DHT22;8528;49.976;11.858;2023-07-20T05:08:16;17.40;99.90
16823;DHT22;8528;49.976;11.858;2023-07-20T05:10:43;17.40;99.90
16823;DHT22;8528;49.976;11.858;2023-07-20T05:13:09;17.70;99.90
16823;DHT22;8528;49.976;11.858;2023-07-20T05:15:36;18.10;99.90
16823;DHT22;8528;49.976;11.858;2023-07-20T05:18:03;18.80;99.90
16823;DHT22;8528;49.976;11.858;2023-07-20T05:20:30;19.50;99.90
16823;DHT22;8528;49.976;11.858;2023-07-20T05:22:58;19.80;99.90
16823;DHT22;8528;49.976;11.858;2023-07-20T05:25:26;19.90;99.90
16823;DHT22;8528;49.976;11.858;2023-07-20T05:27:56;19.80;99.90
16823;DHT22;8528;49.976;11.858;2023-07-20T05:30:23;19.80;99.90
16823;DHT22;8528;49.976;11.858;2023-07-20T05:32:50;19.80;99.90
16823;DHT22;8528;49.976;11.858;2023-07-20T05:35:19;19.80;99.90
16823;DHT22;8528;49.976;11.858;2023-07-20T05:37:46;19.50;99.90
16823;DHT22;8528;49.976;11.858;2023-07-20T05:40:14;19.40;99.90
16823;DHT22;8528;49.976;11.858;2023-07-20T05:42:45;19.30;99.90
16823;DHT22;8528;49.976;11.858;2023-07-20T05:45:19;19.30;99.90
16823;DHT22;8528;49.976;11.858;2023-07-20T05:47:46;19.50;99.90
16823;DHT22;8528;49.976;11.858;2023-07-20T05:50:13;20.10;99.90
16823;DHT22;8528;49.976;11.858;2023-07-20T05:52:40;20.40;99.90
16823;DHT22;8528;49.976;11.858;2023-07-20T05:55:07;20.40;99.90
16823;DHT22;8528;49.976;11.858;2023-07-20T05:57:34;20.50;99.90
16823;DHT22;8528;49.976;11.858;2023-07-20T06:00:02;20.70;99.90
16823;DHT22;8528;49.976;11.858;2023-07-20T06:02:29;20.90;99.90
16823;DHT22;8528;49.976;11.858;2023-07-20T06:04:56;21.40;99.90
16823;DHT22;8528;49.976;11.858;2023-07-20T06:07:23;21.80;99.90
16823;DHT22;8528;49.976;11.858;2023-07-20T06:09:49;22.20;99.90
16823;DHT22;8528;49.976;11.858;2023-07-20T06:12:16;22.50;99.90
16823;DHT22;8528;49.976;11.858;2023-07-20T06:14:43;23.00;99.90
16823;DHT22;8528;49.976;11.858;2023-07-20T06:17:10;23.80;99.90
16823;DHT22;8528;49.976;11.858;2023-07-20T06:19:37;23.90;98.30
16823;DHT22;8528;49.976;11.858;2023-07-20T06:22:04;23.50;98.90
16823;DHT22;8528;49.976;11.858;2023-07-20T06:24:31;23.30;99.10
16823;DHT22;8528;49.976;11.858;2023-07-20T06:26:57;23.10;99.00
16823;DHT22;8528;49.976;11.858;2023-07-20T06:29:24;23.40;98.50
16823;DHT22;8528;49.976;11.858;2023-07-20T06:31:51;23.80;96.40
16823;DHT22;8528;49.976;11.858;2023-07-20T06:34:18;24.40;95.40
16823;DHT22;8528;49.976;11.858;2023-07-20T06:36:49;24.50;94.20
16823;DHT22;8528;49.976;11.858;2023-07-20T06:39:16;25.10;93.40
16823;DHT22;8528;49.976;11.858;2023-07-20T06:41:45;26.20;90.60
16823;DHT22;8528;49.976;11.858;2023-07-20T06:44:12;27.20;86.00
16823;DHT22;8528;49.976;11.858;2023-07-20T06:46:39;27.00;83.10
16823;DHT22;8528;49.976;11.858;2023-07-20T06:49:06;27.10;81.20
16823;DHT22;8528;49.976;11.858;2023-07-20T06:51:37;27.50;78.80
16823;DHT22;8528;49.976;11.858;2023-07-20T06:54:04;27.80;75.50
16823;DHT22;8528;49.976;11.858;2023-07-20T06:56:31;28.10;72.70
16823;DHT22;8528;49.976;11.858;2023-07-20T06:58:59;28.20;71.90
16823;DHT22;8528;49.976;11.858;2023-07-20T07:01:26;28.50;69.10
16823;DHT22;8528;49.976;11.858;2023-07-20T07:03:54;28.50;68.30
16823;DHT22;8528;49.976;11.858;2023-07-20T07:06:22;28.30;68.80
16823;DHT22;8528;49.976;11.858;2023-07-20T07:08:50;28.50;66.90
16823;DHT22;8528;49.976;11.858;2023-07-20T07:11:17;28.90;65.10
16823;DHT22;8528;49.976;11.858;2023-07-20T07:13:43;29.20;61.90
16823;DHT22;8528;49.976;11.858;2023-07-20T07:16:13;28.30;62.10
16823;DHT22;8528;49.976;11.858;2023-07-20T07:18:46;26.80;67.50
16823;DHT22;8528;49.976;11.858;2023-07-20T07:21:13;26.90;67.60
16823;DHT22;8528;49.976;11.858;2023-07-20T07:23:40;26.30;68.80
16823;DHT22;8528;49.976;11.858;2023-07-20T07:26:07;25.90;70.90
16823;DHT22;8528;49.976;11.858;2023-07-20T07:28:34;26.50;70.90
16823;DHT22;8528;49.976;11.858;2023-07-20T07:31:01;27.20;68.80
16823;DHT22;8528;49.976;11.858;2023-07-20T07:33:31;27.10;67.20
16823;DHT22;8528;49.976;11.858;2023-07-20T07:35:57;26.90;66.30
16823;DHT22;8528;49.976;11.858;2023-07-20T07:38:28;26.30;68.60
16823;DHT22;8528;49.976;11.858;2023-07-20T07:41:15;26.40;69.20
16823;DHT22;8528;49.976;11.858;2023-07-20T07:43:42;27.30;68.20
16823;DHT22;8528;49.976;11.858;2023-07-20T07:46:09;28.50;64.40
16823;DHT22;8528;49.976;11.858;2023-07-20T07:48:36;29.50;60.20
16823;DHT22;8528;49.976;11.858;2023-07-20T07:51:03;30.40;57.30
16823;DHT22;8528;49.976;11.858;2023-07-20T07:53:29;30.50;56.70
16823;DHT22;8528;49.976;11.858;2023-07-20T07:55:56;30.70;56.40
16823;DHT22;8528;49.976;11.858;2023-07-20T07:58:23;30.30;56.20
16823;DHT22;8528;49.976;11.858;2023-07-20T08:00:50;30.70;55.90
16823;DHT22;8528;49.976;11.858;2023-07-20T08:03:17;31.90;53.60
16823;DHT22;8528;49.976;11.858;2023-07-20T08:05:45;32.40;50.00
16823;DHT22;8528;49.976;11.858;2023-07-20T08:08:12;31.40;52.40
16823;DHT22;8528;49.976;11.858;2023-07-20T08:10:39;30.90;53.70
16823;DHT22;8528;49.976;11.858;2023-07-20T08:13:06;31.50;52.20
16823;DHT22;8528;49.976;11.858;2023-07-20T08:15:33;32.20;51.00
16823;DHT22;8528;49.976;11.858;2023-07-20T08:18:00;32.80;49.30
16823;DHT22;8528;49.976;11.858;2023-07-20T08:20:27;33.10;49.80
16823;DHT22;8528;49.976;11.858;2023-07-20T08:22:55;33.20;46.60
16823;DHT22;8528;49.976;11.858;2023-07-20T08:25:22;33.10;47.40
16823;DHT22;8528;49.976;11.858;2023-07-20T08:27:48;33.50;46.70
16823;DHT22;8528;49.976;11.858;2023-07-20T08:30:16;34.10;45.30
16823;DHT22;8528;49.976;11.858;2023-07-20T08:32:42;34.10;44.30
16823;DHT22;8528;49.976;11.858;2023-07-20T08:35:09;34.40;44.20
16823;DHT22;8528;49.976;11.858;2023-07-20T08:37:36;35.10;43.30
16823;DHT22;8528;49.976;11.858;2023-07-20T08:40:03;34.40;42.40
16823;DHT22;8528;49.976;11.858;2023-07-20T08:42:31;32.20;45.30
16823;DHT22;8528;49.976;11.858;2023-07-20T08:44:58;30.70;48.30
16823;DHT22;8528;49.976;11.858;2023-07-20T08:47:26;31.00;47.70
16823;DHT22;8528;49.976;11.858;2023-07-20T08:49:53;31.90;44.80
16823;DHT22;8528;49.976;11.858;2023-07-20T08:52:21;32.10;45.00
16823;DHT22;8528;49.976;11.858;2023-07-20T08:54:48;31.80;44.80
16823;DHT22;8528;49.976;11.858;2023-07-20T08:57:16;30.50;47.00
16823;DHT22;8528;49.976;11.858;2023-07-20T08:59:43;28.60;49.90
16823;DHT22;8528;49.976;11.858;2023-07-20T09:02:16;28.30;52.70
16823;DHT22;8528;49.976;11.858;2023-07-20T09:04:45;30.00;49.90
16823;DHT22;8528;49.976;11.858;2023-07-20T09:07:12;31.40;46.30
16823;DHT22;8528;49.976;11.858;2023-07-20T09:09:40;31.40;47.10
16823;DHT22;8528;49.976;11.858;2023-07-20T09:12:14;32.30;45.20
16823;DHT22;8528;49.976;11.858;2023-07-20T09:14:45;32.20;45.40
16823;DHT22;8528;49.976;11.858;2023-07-20T09:17:13;31.20;46.00
16823;DHT22;8528;49.976;11.858;2023-07-20T09:19:47;29.70;48.30
16823;DHT22;8528;49.976;11.858;2023-07-20T09:22:14;28.10;51.20
16823;DHT22;8528;49.976;11.858;2023-07-20T09:24:41;27.10;53.50
16823;DHT22;8528;49.976;11.858;2023-07-20T09:27:10;26.10;55.20
16823;DHT22;8528;49.976;11.858;2023-07-20T09:29:51;25.70;56.90
16823;DHT22;8528;49.976;11.858;2023-07-20T09:32:21;27.00;54.10
16823;DHT22;8528;49.976;11.858;2023-07-20T09:34:51;29.10;50.80
16823;DHT22;8528;49.976;11.858;2023-07-20T09:37:22;31.30;46.10
16823;DHT22;8528;49.976;11.858;2023-07-20T09:39:52;31.20;45.80
16823;DHT22;8528;49.976;11.858;2023-07-20T09:42:22;30.20;48.10
16823;DHT22;8528;49.976;11.858;2023-07-20T09:44:55;30.40;45.50
16823;DHT22;8528;49.976;11.858;2023-07-20T09:47:23;31.00;44.50
16823;DHT22;8528;49.976;11.858;2023-07-20T09:49:59;31.30;44.10
16823;DHT22;8528;49.976;11.858;2023-07-20T09:52:34;30.90;45.10
16823;DHT22;8528;49.976;11.858;2023-07-20T09:55:04;30.00;47.70
16823;DHT22;8528;49.976;11.858;2023-07-20T09:57:33;29.20;48.70
16823;DHT22;8528;49.976;11.858;2023-07-20T10:00:02;28.30;50.30
16823;DHT22;8528;49.976;11.858;2023-07-20T10:02:41;27.50;51.80
16823;DHT22;8528;49.976;11.858;2023-07-20T10:05:12;27.00;52.90
16823;DHT22;8528;49.976;11.858;2023-07-20T10:07:50;26.60;52.60
16823;DHT22;8528;49.976;11.858;2023-07-20T10:10:41;26.10;54.00
16823;DHT22;8528;49.976;11.858;2023-07-20T10:13:16;25.50;54.10
16823;DHT22;8528;49.976;11.858;2023-07-20T10:15:46;26.40;54.60
16823;DHT22;8528;49.976;11.858;2023-07-20T10:21:07;31.50;46.30
16823;DHT22;8528;49.976;11.858;2023-07-20T10:23:38;33.10;42.80
16823;DHT22;8528;49.976;11.858;2023-07-20T10:26:05;35.10;40.30
16823;DHT22;8528;49.976;11.858;2023-07-20T10:28:40;36.70;37.40
16823;DHT22;8528;49.976;11.858;2023-07-20T10:31:37;36.90;35.10
16823;DHT22;8528;49.976;11.858;2023-07-20T10:34:04;36.80;33.70
16823;DHT22;8528;49.976;11.858;2023-07-20T10:36:31;35.40;35.30
16823;DHT22;8528;49.976;11.858;2023-07-20T10:38:58;33.60;37.20
16823;DHT22;8528;49.976;11.858;2023-07-20T10:41:32;31.50;40.40
16823;DHT22;8528;49.976;11.858;2023-07-20T10:44:04;29.60;43.40
16823;DHT22;8528;49.976;11.858;2023-07-20T10:46:41;28.30;47.00
16823;DHT22;8528;49.976;11.858;2023-07-20T10:49:10;27.50;49.70
16823;DHT22;8528;49.976;11.858;2023-07-20T10:51:48;27.20;50.10
16823;DHT22;8528;49.976;11.858;2023-07-20T10:54:46;27.10;49.00
16823;DHT22;8528;49.976;11.858;2023-07-20T10:57:24;27.00;49.50
16823;DHT22;8528;49.976;11.858;2023-07-20T10:59:51;27.50;48.90
16823;DHT22;8528;49.976;11.858;2023-07-20T11:02:20;29.30;46.40
16823;DHT22;8528;49.976;11.858;2023-07-20T11:04:48;30.20;44.40
16823;DHT22;8528;49.976;11.858;2023-07-20T11:07:17;29.90;45.40
16823;DHT22;8528;49.976;11.858;2023-07-20T11:09:45;29.10;46.30
16823;DHT22;8528;49.976;11.858;2023-07-20T11:12:17;28.40;46.90
16823;DHT22;8528;49.976;11.858;2023-07-20T11:14:54;27.90;47.50
16823;DHT22;8528;49.976;11.858;2023-07-20T11:17:29;27.00;47.90
16823;DHT22;8528;49.976;11.858;2023-07-20T11:19:57;26.20;49.80
16823;DHT22;8528;49.976;11.858;2023-07-20T11:22:27;25.40;50.80
16823;DHT22;8528;49.976;11.858;2023-07-20T11:24:58;24.90;52.70
16823;DHT22;8528;49.976;11.858;2023-07-20T11:27:25;24.50;53.30
16823;DHT22;8528;49.976;11.858;2023-07-20T11:29:53;24.20;54.80
16823;DHT22;8528;49.976;11.858;2023-07-20T11:32:21;24.10;55.20
16823;DHT22;8528;49.976;11.858;2023-07-20T11:34:48;25.10;54.00
16823;DHT22;8528;49.976;11.858;2023-07-20T11:37:19;26.70;50.50
16823;DHT22;8528;49.976;11.858;2023-07-20T11:39:46;27.00;50.60
16823;DHT22;8528;49.976;11.858;2023-07-20T11:42:13;26.50;49.10
16823;DHT22;8528;49.976;11.858;2023-07-20T11:45:03;25.80;52.30
16823;DHT22;8528;49.976;11.858;2023-07-20T11:47:32;25.10;53.10
16823;DHT22;8528;49.976;11.858;2023-07-20T11:50:03;25.10;51.80
16823;DHT22;8528;49.976;11.858;2023-07-20T11:52:30;25.80;52.10
16823;DHT22;8528;49.976;11.858;2023-07-20T11:54:57;26.50;51.00
16823;DHT22;8528;49.976;11.858;2023-07-20T11:57:24;26.70;50.20
16823;DHT22;8528;49.976;11.858;2023-07-20T12:00:02;26.30;51.70
16823;DHT22;8528;49.976;11.858;2023-07-20T12:02:35;25.90;52.40
16823;DHT22;8528;49.976;11.858;2023-07-20T12:05:03;25.20;53.00
16823;DHT22;8528;49.976;11.858;2023-07-20T12:07:36;24.60;54.40
16823;DHT22;8528;49.976;11.858;2023-07-20T12:10:17;24.20;54.40
16823;DHT22;8528;49.976;11.858;2023-07-20T12:12:49;24.10;56.20
16823;DHT22;8528;49.976;11.858;2023-07-20T12:18:00;26.10;52.70
16823;DHT22;8528;49.976;11.858;2023-07-20T12:20:32;26.10;52.40
16823;DHT22;8528;49.976;11.858;2023-07-20T12:23:05;26.20;52.50
16823;DHT22;8528;49.976;11.858;2023-07-20T12:25:45;26.20;52.80
16823;DHT22;8528;49.976;11.858;2023-07-20T12:31:53;26.70;52.30
16823;DHT22;8528;49.976;11.858;2023-07-20T12:34:20;26.80;51.90
16823;DHT22;8528;49.976;11.858;2023-07-20T12:36:46;26.60;52.50
16823;DHT22;8528;49.976;11.858;2023-07-20T12:39:13;27.10;52.20
16823;DHT22;8528;49.976;11.858;2023-07-20T12:41:41;27.40;51.10
16823;DHT22;8528;49.976;11.858;2023-07-20T12:44:26;27.40;51.10
16823;DHT22;8528;49.976;11.858;2023-07-20T12:46:53;27.30;50.80
16823;DHT22;8528;49.976;11.858;2023-07-20T12:49:20;26.80;51.20
16823;DHT22;8528;49.976;11.858;2023-07-20T12:51:47;26.00;53.70
16823;DHT22;8528;49.976;11.858;2023-07-20T12:54:14;25.40;54.40
16823;DHT22;8528;49.976;11.858;2023-07-20T12:56:41;25.00;54.80
16823;DHT22;8528;49.976;11.858;2023-07-20T12:59:11;24.80;55.60
16823;DHT22;8528;49.976;11.858;2023-07-20T13:01:37;24.90;56.30
16823;DHT22;8528;49.976;11.858;2023-07-20T13:04:04;25.40;54.10
16823;DHT22;8528;49.976;11.858;2023-07-20T13:06:34;25.70;54.40
16823;DHT22;8528;49.976;11.858;2023-07-20T13:09:03;25.80;53.60
16823;DHT22;8528;49.976;11.858;2023-07-20T13:11:29;26.50;53.30
16823;DHT22;8528;49.976;11.858;2023-07-20T13:13:56;27.20;51.10
16823;DHT22;8528;49.976;11.858;2023-07-20T13:16:23;27.40;50.70
16823;DHT22;8528;49.976;11.858;2023-07-20T13:18:50;27.00;50.50
16823;DHT22;8528;49.976;11.858;2023-07-20T13:21:17;26.80;50.80
16823;DHT22;8528;49.976;11.858;2023-07-20T13:23:47;26.40;52.10
16823;DHT22;8528;49.976;11.858;2023-07-20T13:26:14;26.60;51.70
16823;DHT22;8528;49.976;11.858;2023-07-20T13:28:42;26.90;51.90
16823;DHT22;8528;49.976;11.858;2023-07-20T13:31:09;27.30;49.80
16823;DHT22;8528;49.976;11.858;2023-07-20T13:33:39;27.10;51.50
16823;DHT22;8528;49.976;11.858;2023-07-20T13:36:06;26.80;50.60
16823;DHT22;8528;49.976;11.858;2023-07-20T13:38:35;26.60;50.40
16823;DHT22;8528;49.976;11.858;2023-07-20T13:41:02;26.40;50.90
16823;DHT22;8528;49.976;11.858;2023-07-20T13:43:28;26.10;51.20
16823;DHT22;8528;49.976;11.858;2023-07-20T13:45:55;26.10;51.00
16823;DHT22;8528;49.976;11.858;2023-07-20T13:48:22;26.00;52.00
16823;DHT22;8528;49.976;11.858;2023-07-20T13:50:53;26.00;50.40
16823;DHT22;8528;49.976;11.858;2023-07-20T13:53:29;25.50;50.70
16823;DHT22;8528;49.976;11.858;2023-07-20T13:55:59;25.00;52.40
16823;DHT22;8528;49.976;11.858;2023-07-20T13:58:29;24.80;53.70
16823;DHT22;8528;49.976;11.858;2023-07-20T14:00:57;24.90;55.30
16823;DHT22;8528;49.976;11.858;2023-07-20T14:03:24;24.80;54.80
16823;DHT22;8528;49.976;11.858;2023-07-20T14:05:51;24.60;55.50
16823;DHT22;8528;49.976;11.858;2023-07-20T14:08:21;24.50;55.20
16823;DHT22;8528;49.976;11.858;2023-07-20T14:10:48;24.30;56.30
16823;DHT22;8528;49.976;11.858;2023-07-20T14:13:18;24.20;57.10
16823;DHT22;8528;49.976;11.858;2023-07-20T14:15:45;24.10;57.00
16823;DHT22;8528;49.976;11.858;2023-07-20T14:18:12;24.00;57.40
16823;DHT22;8528;49.976;11.858;2023-07-20T14:20:39;23.90;57.60
16823;DHT22;8528;49.976;11.858;2023-07-20T14:23:05;23.80;57.60
16823;DHT22;8528;49.976;11.858;2023-07-20T14:25:33;23.80;57.70
16823;DHT22;8528;49.976;11.858;2023-07-20T14:28:04;23.80;58.10
16823;DHT22;8528;49.976;11.858;2023-07-20T14:30:30;23.60;58.00
16823;DHT22;8528;49.976;11.858;2023-07-20T14:32:57;23.40;58.90
16823;DHT22;8528;49.976;11.858;2023-07-20T14:35:24;23.50;59.60
16823;DHT22;8528;49.976;11.858;2023-07-20T14:37:52;23.60;58.50
16823;DHT22;8528;49.976;11.858;2023-07-20T14:40:19;23.50;59.20
16823;DHT22;8528;49.976;11.858;2023-07-20T14:42:46;23.50;58.80
16823;DHT22;8528;49.976;11.858;2023-07-20T14:45:13;23.60;58.20
16823;DHT22;8528;49.976;11.858;2023-07-20T14:47:40;23.60;58.40
16823;DHT22;8528;49.976;11.858;2023-07-20T14:50:07;23.60;58.20
16823;DHT22;8528;49.976;11.858;2023-07-20T14:52:34;23.70;58.20
16823;DHT22;8528;49.976;11.858;2023-07-20T14:55:01;23.70;58.50
16823;DHT22;8528;49.976;11.858;2023-07-20T14:57:28;23.90;58.90
16823;DHT22;8528;49.976;11.858;2023-07-20T14:59:55;24.00;57.80
16823;DHT22;8528;49.976;11.858;2023-07-20T15:02:22;24.00;57.30
16823;DHT22;8528;49.976;11.858;2023-07-20T15:04:50;23.90;57.40
16823;DHT22;8528;49.976;11.858;2023-07-20T15:07:18;23.80;57.60
16823;DHT22;8528;49.976;11.858;2023-07-20T15:09:45;23.70;58.40
16823;DHT22;8528;49.976;11.858;2023-07-20T15:12:12;23.60;58.50
16823;DHT22;8528;49.976;11.858;2023-07-20T15:14:43;23.50;58.10
16823;DHT22;8528;49.976;11.858;2023-07-20T15:17:10;23.30;59.10
16823;DHT22;8528;49.976;11.858;2023-07-20T15:19:38;23.20;59.30
16823;DHT22;8528;49.976;11.858;2023-07-20T15:22:05;23.00;59.30
16823;DHT22;8528;49.976;11.858;2023-07-20T15:24:34;22.90;60.00
16823;DHT22;8528;49.976;11.858;2023-07-20T15:27:01;22.80;60.50
16823;DHT22;8528;49.976;11.858;2023-07-20T15:29:29;22.80;60.30
16823;DHT22;8528;49.976;11.858;2023-07-20T15:31:58;23.00;60.10
16823;DHT22;8528;49.976;11.858;2023-07-20T15:34:26;23.10;59.50
16823;DHT22;8528;49.976;11.858;2023-07-20T15:36:54;23.20;58.50
16823;DHT22;8528;49.976;11.858;2023-07-20T15:39:20;23.40;57.40
16823;DHT22;8528;49.976;11.858;2023-07-20T15:41:48;23.40;57.50
16823;DHT22;8528;49.976;11.858;2023-07-20T15:44:15;23.30;58.20
16823;DHT22;8528;49.976;11.858;2023-07-20T15:49:08;23.40;57.40
16823;DHT22;8528;49.976;11.858;2023-07-20T15:51:36;23.60;56.90
16823;DHT22;8528;49.976;11.858;2023-07-20T15:54:04;23.70;57.20
16823;DHT22;8528;49.976;11.858;2023-07-20T15:56:36;23.70;58.10
16823;DHT22;8528;49.976;11.858;2023-07-20T15:59:03;23.70;60.00